Time;durP1;ratioP1;P1;durP2;ratioP2;P2;SDS_P1;SDS_P2;PMS_P1;PMS_P2;Temp;Humidity;BMP_temperature;BMP_pressure;BME280_temperature;BME280_humidity;BME280_pressure;Samples;Min_cycle;Max_cycle;Signal;HPM_P1;HPM_P2
2023/01/02 00:02:12;;;;;;;12.98;5.35;;;;;;;12.15;94.93;100509.50;4946389;29;20047;-78
2023/01/02 00:04:41;;;;;;;16.75;6.15;;;;;;;12.22;94.66;100520.94;4954737;29;20055;-78
2023/01/02 00:07:36;;;;;;;13.05;5.90;;;;;;;12.15;94.31;100497.19;4955182;29;20483;-78
2023/01/02 00:10:34;;;;;;;10.77;5.43;;;;;;;12.56;92.59;100515.38;4954866;29;20051;-78
2023/01/02 00:13:01;;;;;;;10.15;5.00;;;;;;;12.68;91.32;100503.53;4948577;28;20054;-78
2023/01/02 00:15:28;;;;;;;13.23;5.00;;;;;;;12.77;90.58;100512.16;4956892;28;20135;-78
2023/01/02 00:18:07;;;;;;;13.07;5.20;;;;;;;12.64;90.41;100481.22;4957113;28;20059;-78
2023/01/02 00:20:35;;;;;;;12.45;5.10;;;;;;;12.82;89.63;100479.13;4956735;29;20422;-76
2023/01/02 00:23:33;;;;;;;11.60;5.22;;;;;;;12.92;88.82;100477.09;4956764;28;20055;-76
2023/01/02 00:26:12;;;;;;;9.85;4.63;;;;;;;12.80;88.72;100467.97;4953383;29;20074;-77
2023/01/02 00:28:39;;;;;;;12.40;5.40;;;;;;;13.01;88.11;100477.03;4955799;29;20047;-77
2023/01/02 00:31:06;;;;;;;9.32;4.65;;;;;;;12.93;88.06;100465.59;4955706;28;20051;-78
2023/01/02 00:33:33;;;;;;;11.90;5.20;;;;;;;12.92;87.66;100463.97;4956067;28;20058;-77
2023/01/02 00:36:10;;;;;;;10.82;5.13;;;;;;;13.04;87.66;100484.56;4955501;28;20498;-78
2023/01/02 00:38:37;;;;;;;11.13;5.35;;;;;;;12.99;87.62;100484.28;4956041;29;20130;-77
2023/01/02 00:41:04;;;;;;;11.05;4.85;;;;;;;12.93;87.41;100443.78;4955984;28;20438;-78
2023/01/02 00:43:31;;;;;;;11.23;5.35;;;;;;;13.02;87.00;100462.91;4955715;28;20066;-76
2023/01/02 00:46:17;;;;;;;9.50;5.40;;;;;;;13.09;87.11;100475.19;4955250;28;20055;-78
2023/01/02 00:48:44;;;;;;;17.45;5.45;;;;;;;12.99;86.95;100450.13;4955773;29;20051;-78
2023/01/02 00:51:14;;;;;;;13.18;5.22;;;;;;;12.99;86.71;100452.75;4955815;28;20073;-77
2023/01/02 00:53:56;;;;;;;13.27;5.40;;;;;;;13.15;86.72;100468.41;4955518;29;20059;-77
2023/01/02 00:56:32;;;;;;;10.75;4.90;;;;;;;13.09;86.77;100450.72;4956245;29;20466;-78
2023/01/02 00:59:02;;;;;;;14.38;5.90;;;;;;;12.96;87.21;100449.50;4956060;29;20086;-78
2023/01/02 01:01:39;;;;;;;14.40;5.13;;;;;;;13.02;86.87;100458.47;4955219;28;20054;-78
2023/01/02 01:07:00;;;;;;;9.82;5.05;;;;;;;13.15;86.26;100463.16;4967134;28;20066;-82
2023/01/02 01:09:42;;;;;;;10.80;4.80;;;;;;;13.18;86.10;100457.56;4968194;28;20181;-81
2023/01/02 01:12:09;;;;;;;14.18;5.35;;;;;;;13.20;85.80;100455.59;4964430;29;20106;-80
2023/01/02 01:14:44;;;;;;;14.65;5.32;;;;;;;13.18;85.98;100452.31;4961938;29;20067;-81
2023/01/02 01:17:14;;;;;;;10.55;5.55;;;;;;;13.08;85.90;100441.19;4940194;29;20052;-80
2023/01/02 01:19:45;;;;;;;12.85;4.93;;;;;;;13.23;85.42;100457.88;4945814;29;20044;-81
2023/01/02 01:22:26;;;;;;;12.63;5.25;;;;;;;13.22;85.24;100450.97;4945952;29;20448;-81
2023/01/02 01:24:58;;;;;;;13.15;5.72;;;;;;;13.18;85.62;100462.81;4945749;29;20107;-81
2023/01/02 01:27:25;;;;;;;12.15;5.25;;;;;;;13.18;85.72;100457.56;4945483;29;20051;-81
2023/01/02 01:29:55;;;;;;;17.15;5.57;;;;;;;13.06;85.83;100449.25;4946515;29;20067;-80
2023/01/02 01:32:36;;;;;;;12.88;5.47;;;;;;;13.05;85.54;100444.19;4945585;29;20043;-81
2023/01/02 01:35:15;;;;;;;14.20;5.10;;;;;;;13.22;85.21;100461.50;4946460;29;20084;-81
2023/01/02 01:37:54;;;;;;;12.68;5.20;;;;;;;13.26;85.24;100468.00;4946485;29;20051;-81
2023/01/02 01:40:54;;;;;;;14.07;5.80;;;;;;;13.09;85.27;100448.09;4947133;29;20051;-82
2023/01/02 01:44:00;;;;;;;15.40;5.30;;;;;;;13.18;85.22;100462.81;4943382;29;20052;-81
2023/01/02 01:46:37;;;;;;;11.38;4.93;;;;;;;13.19;85.18;100470.53;4947184;29;20054;-81
2023/01/02 01:49:27;;;;;;;16.40;5.88;;;;;;;13.10;85.44;100460.22;4946334;29;20052;-81
2023/01/02 01:52:19;;;;;;;13.40;5.63;;;;;;;13.12;85.24;100464.31;4943329;29;20091;-83
2023/01/02 01:54:58;;;;;;;12.35;6.70;;;;;;;13.13;85.14;100467.75;4948996;29;20051;-80
2023/01/02 01:57:42;;;;;;;13.13;5.28;;;;;;;13.08;84.91;100462.22;4946396;29;20110;-80
2023/01/02 02:03:16;;;;;;;10.23;5.22;;;;;;;13.17;85.13;100472.53;4934783;29;20525;-80
2023/01/02 02:05:43;;;;;;;16.05;5.45;;;;;;;13.21;84.92;100484.31;4941482;29;20051;-79
2023/01/02 02:08:16;;;;;;;10.38;5.47;;;;;;;13.15;85.06;100469.22;4941498;29;20119;-80
2023/01/02 02:10:45;;;;;;;12.25;5.88;;;;;;;13.15;85.01;100477.09;4943144;29;20477;-81
2023/01/02 02:13:12;;;;;;;15.38;5.43;;;;;;;13.15;84.83;100473.66;4946376;29;20055;-80
2023/01/02 02:15:49;;;;;;;9.60;4.68;;;;;;;13.20;84.57;100481.88;4945216;29;20139;-80
2023/01/02 02:18:30;;;;;;;13.43;5.53;;;;;;;13.22;84.30;100479.88;4946331;29;20150;-82
2023/01/02 02:21:05;;;;;;;15.85;5.85;;;;;;;13.17;84.58;100484.84;4946216;29;20063;-81
2023/01/02 02:24:18;;;;;;;12.82;5.45;;;;;;;13.11;85.02;100482.88;4946122;29;20075;-82
2023/01/02 02:27:06;;;;;;;11.90;5.43;;;;;;;13.11;84.71;100477.63;4930723;29;20483;-80
2023/01/02 02:30:03;;;;;;;13.25;5.25;;;;;;;13.10;84.27;100471.56;4946486;29;20052;-80
2023/01/02 02:32:41;;;;;;;11.32;5.13;;;;;;;13.14;84.31;100472.03;4944949;29;20083;-79
2023/01/02 02:35:18;;;;;;;15.75;5.43;;;;;;;13.17;83.78;100469.91;4945315;29;20079;-80
2023/01/02 02:37:53;;;;;;;13.20;5.20;;;;;;;13.09;84.33;100474.34;4945131;29;20127;-80
2023/01/02 02:40:30;;;;;;;13.52;5.25;;;;;;;13.07;84.44;100468.47;4946242;29;20071;-81
2023/01/02 02:43:05;;;;;;;13.68;5.18;;;;;;;13.02;84.65;100468.16;4945573;29;20107;-80
2023/01/02 02:45:44;;;;;;;10.73;5.05;;;;;;;12.96;84.62;100462.63;4943670;29;20135;-79
2023/01/02 02:48:14;;;;;;;9.75;5.05;;;;;;;12.95;84.72;100458.38;4944402;29;20055;-80
2023/01/02 02:50:48;;;;;;;11.63;5.97;;;;;;;12.98;84.52;100459.00;4945464;29;20075;-79
2023/01/02 02:53:20;;;;;;;11.65;5.22;;;;;;;13.00;84.36;100451.78;4948022;29;20072;-80
2023/01/02 02:55:51;;;;;;;9.32;4.97;;;;;;;12.96;84.51;100441.63;4948405;29;20079;-81
2023/01/02 02:58:20;;;;;;;10.52;4.85;;;;;;;12.93;84.62;100441.97;4949281;29;20047;-82
2023/01/02 03:00:48;;;;;;;14.25;5.15;;;;;;;13.00;84.23;100436.00;4949969;29;20114;-83
2023/01/02 03:03:16;;;;;;;10.80;5.18;;;;;;;13.08;83.63;100438.56;4952507;29;20071;-82
2023/01/02 03:05:46;;;;;;;17.25;5.68;;;;;;;13.10;83.32;100439.22;4948174;29;20051;-82
2023/01/02 03:08:22;;;;;;;14.90;5.00;;;;;;;13.04;82.98;100442.53;4946661;29;20488;-82
2023/01/02 03:10:55;;;;;;;9.63;5.20;;;;;;;12.98;83.63;100438.81;4947591;29;20043;-82
2023/01/02 03:13:25;;;;;;;;;;;;;;;13.02;83.60;100452.41;4946274;29;20127;-81
2023/01/02 03:16:03;;;;;;;11.50;4.88;;;;;;;12.93;83.77;100459.53;4943471;29;19990;-81
2023/01/02 03:18:35;;;;;;;15.27;5.40;;;;;;;12.88;84.00;100469.75;4943190;29;20116;-81
2023/01/02 03:21:07;;;;;;;11.60;4.65;;;;;;;12.97;83.68;100463.44;4943206;29;20115;-82
2023/01/02 03:23:41;;;;;;;10.20;5.65;;;;;;;12.96;83.46;100469.69;4943752;29;20088;-82
2023/01/02 03:26:08;;;;;;;12.95;5.65;;;;;;;13.02;83.32;100468.16;4942828;29;20066;-81
2023/01/02 03:28:38;;;;;;;12.35;5.28;;;;;;;12.98;82.83;100462.44;4944178;29;20519;-81
2023/01/02 03:31:12;;;;;;;9.30;4.70;;;;;;;13.02;82.88;100462.91;4943718;29;20086;-81
2023/01/02 03:33:43;;;;;;;14.55;5.72;;;;;;;12.98;83.02;100467.69;4943872;29;20078;-81
2023/01/02 03:36:16;;;;;;;14.82;5.82;;;;;;;12.96;82.74;100467.88;4945276;29;20078;-80
2023/01/02 03:38:47;;;;;;;11.07;4.95;;;;;;;12.96;82.82;100460.00;4945501;29;20051;-81
2023/01/02 03:41:20;;;;;;;10.75;5.03;;;;;;;13.01;82.36;100454.22;4944504;29;20079;-81
2023/01/02 03:43:51;;;;;;;17.08;5.28;;;;;;;12.95;82.70;100458.38;4944405;29;20078;-81
2023/01/02 03:46:24;;;;;;;15.60;6.28;;;;;;;13.01;82.38;100454.22;4945494;29;20163;-81
2023/01/02 03:48:55;;;;;;;10.13;5.07;;;;;;;13.04;82.28;100443.38;4942933;29;20072;-81
2023/01/02 03:51:22;;;;;;;14.85;5.65;;;;;;;13.10;82.03;100460.22;4947826;29;20135;-81
2023/01/02 03:53:51;;;;;;;19.60;5.38;;;;;;;13.01;82.37;100467.34;4947151;29;20131;-81
2023/01/02 03:56:25;;;;;;;13.38;4.70;;;;;;;13.01;82.30;100480.50;4946970;29;20111;-80
2023/01/02 03:58:56;;;;;;;10.65;4.90;;;;;;;13.04;82.05;100479.31;4947408;29;20067;-81
2023/01/02 04:01:32;;;;;;;13.20;5.32;;;;;;;13.02;82.30;100481.31;4946234;29;20135;-81
2023/01/02 04:04:05;;;;;;;14.27;6.03;;;;;;;12.98;82.56;100487.91;4946952;29;20052;-81
2023/01/02 04:06:37;;;;;;;12.90;5.45;;;;;;;12.96;83.06;100483.63;4946836;29;20071;-81
2023/01/02 04:09:07;;;;;;;13.38;5.32;;;;;;;12.91;83.10;100472.00;4947097;29;20079;-81
2023/01/02 04:11:37;;;;;;;8.20;5.22;;;;;;;12.95;83.22;100468.06;4947890;29;20544;-81
2023/01/02 04:14:10;;;;;;;14.13;5.82;;;;;;;12.90;83.88;100463.31;4949353;29;20075;-81
2023/01/02 04:16:40;;;;;;;16.00;5.35;;;;;;;12.86;84.18;100463.84;4949557;29;20059;-80
2023/01/02 04:19:13;;;;;;;17.27;5.50;;;;;;;12.83;84.31;100465.00;4950937;29;20147;-81
2023/01/02 04:21:41;;;;;;;12.30;5.63;;;;;;;12.91;83.90;100467.59;4952223;29;20079;-80
2023/01/02 04:24:12;;;;;;;14.73;5.75;;;;;;;12.92;83.67;100466.59;4951736;29;20134;-80
2023/01/02 04:26:44;;;;;;;9.95;5.57;;;;;;;12.88;83.68;100478.44;4954394;29;20118;-80
2023/01/02 04:29:11;;;;;;;13.57;5.53;;;;;;;12.80;84.26;100480.28;4953006;29;20082;-80
2023/01/02 04:31:45;;;;;;;19.65;5.88;;;;;;;12.80;84.41;100477.66;4951138;29;20052;-79
2023/01/02 04:34:14;;;;;;;10.25;5.28;;;;;;;12.93;83.31;100476.09;4951307;29;20434;-79
2023/01/02 04:36:42;;;;;;;12.05;4.90;;;;;;;12.93;83.22;100475.28;4952161;29;20090;-79
2023/01/02 04:39:09;;;;;;;11.88;5.13;;;;;;;12.93;83.00;100481.34;4948209;29;20063;-80
2023/01/02 04:41:37;;;;;;;12.88;5.18;;;;;;;13.00;82.88;100484.09;4946149;29;20400;-80
2023/01/02 04:44:04;;;;;;;8.70;4.78;;;;;;;12.98;82.88;100487.91;4945987;29;20105;-79
2023/01/02 04:46:30;;;;;;;13.82;5.93;;;;;;;12.88;83.62;100499.44;4945705;29;20130;-79
2023/01/02 04:48:58;;;;;;;9.60;5.10;;;;;;;12.87;83.73;100505.69;4947634;29;20111;-79
2023/01/02 04:51:25;;;;;;;11.65;5.20;;;;;;;12.87;83.69;100513.56;4946267;29;20769;-79
2023/01/02 04:53:53;;;;;;;10.82;5.18;;;;;;;12.84;83.75;100511.28;4946690;29;20111;-80
2023/01/02 04:56:19;;;;;;;9.82;4.95;;;;;;;12.86;83.45;100511.94;4945922;29;20134;-80
2023/01/02 04:58:47;;;;;;;11.05;5.18;;;;;;;12.89;83.17;100516.84;4946548;29;20052;-80
2023/01/02 05:01:16;;;;;;;12.85;4.90;;;;;;;12.89;83.20;100518.66;4945183;29;20135;-80
2023/01/02 05:03:45;;;;;;;11.57;4.70;;;;;;;12.87;83.22;100531.94;4946306;29;20047;-80
2023/01/02 05:06:13;;;;;;;10.82;5.03;;;;;;;12.85;83.16;100525.22;4945374;29;20142;-80
2023/01/02 05:08:40;;;;;;;12.48;4.97;;;;;;;12.87;83.03;100526.69;4945709;29;20162;-80
2023/01/02 05:11:08;;;;;;;10.13;4.80;;;;;;;12.88;83.28;100524.88;4946259;29;20474;-80
2023/01/02 05:13:35;;;;;;;11.85;5.35;;;;;;;12.86;83.36;100522.44;4946218;29;20126;-80
2023/01/02 05:16:02;;;;;;;9.60;4.93;;;;;;;12.83;83.31;100530.66;4945818;29;20052;-80
2023/01/02 05:18:29;;;;;;;10.00;4.53;;;;;;;12.84;83.46;100542.78;4944990;29;20048;-80
2023/01/02 05:21:00;;;;;;;10.43;4.60;;;;;;;12.87;83.43;100546.88;4945623;29;20147;-79
2023/01/02 05:26:13;;;;;;;8.05;4.05;;;;;;;13.09;82.98;100526.91;4946259;29;20124;-79
2023/01/02 05:28:40;;;;;;;9.70;4.68;;;;;;;13.04;83.15;100539.72;4945089;29;20518;-79
2023/01/02 05:31:07;;;;;;;10.27;4.95;;;;;;;12.99;83.25;100536.81;4945110;29;20135;-81
2023/01/02 05:33:33;;;;;;;12.07;4.55;;;;;;;12.89;83.66;100537.03;4947244;29;20079;-80
2023/01/02 05:36:00;;;;;;;10.18;4.82;;;;;;;12.93;83.84;100546.19;4946816;29;20079;-80
2023/01/02 05:38:30;;;;;;;8.68;4.70;;;;;;;13.03;83.68;100538.09;4947080;29;20111;-80
2023/01/02 05:41:01;;;;;;;9.50;4.32;;;;;;;12.99;83.62;100545.50;4947448;29;20056;-80
2023/01/02 05:43:30;;;;;;;10.25;4.93;;;;;;;12.96;84.04;100541.41;4946126;29;20138;-80
2023/01/02 05:45:56;;;;;;;8.75;4.38;;;;;;;12.92;84.68;100541.94;4945651;29;20077;-80
2023/01/02 05:48:23;;;;;;;9.23;4.90;;;;;;;12.95;84.34;100546.84;4946287;29;20115;-79
2023/01/02 05:50:50;;;;;;;12.43;5.10;;;;;;;12.94;84.47;100543.41;4945524;29;20115;-79
2023/01/02 05:53:17;;;;;;;10.48;4.70;;;;;;;12.98;84.84;100543.88;4946124;29;20055;-79
2023/01/02 05:55:45;;;;;;;12.60;4.85;;;;;;;13.00;84.73;100555.03;4945852;29;20058;-78
2023/01/02 05:58:11;;;;;;;11.63;4.47;;;;;;;12.94;85.00;100556.53;4946948;29;20055;-79
2023/01/02 06:00:38;;;;;;;10.43;4.50;;;;;;;12.92;85.28;100553.25;4947555;29;20078;-79
2023/01/02 06:03:05;;;;;;;7.93;4.47;;;;;;;12.92;85.33;100547.19;4947839;29;20082;-81
2023/01/02 06:05:31;;;;;;;7.80;4.25;;;;;;;12.86;85.53;100556.56;4947594;29;20075;-80
2023/01/02 06:07:58;;;;;;;10.02;4.38;;;;;;;12.85;85.83;100557.56;4946922;29;20086;-81
2023/01/02 06:10:24;;;;;;;13.32;4.72;;;;;;;12.92;85.65;100550.63;4947804;29;20086;-81
2023/01/02 06:12:52;;;;;;;13.93;4.90;;;;;;;12.94;85.85;100561.78;4946099;29;20122;-80
2023/01/02 06:15:19;;;;;;;10.45;4.95;;;;;;;13.00;85.52;100567.34;4946422;29;20078;-81
2023/01/02 06:17:45;;;;;;;9.88;4.50;;;;;;;13.09;85.33;100569.75;4946849;29;20106;-79
2023/01/02 06:20:12;;;;;;;8.07;4.72;;;;;;;13.07;85.22;100574.34;4946725;29;20470;-79
2023/01/02 06:22:38;;;;;;;11.15;4.88;;;;;;;13.09;85.24;100576.81;4946761;29;20134;-80
2023/01/02 06:25:06;;;;;;;8.48;4.22;;;;;;;13.01;85.57;100567.16;4946608;29;20115;-81
2023/01/02 06:27:32;;;;;;;9.68;4.45;;;;;;;12.92;85.66;100574.28;4948550;29;20089;-80
2023/01/02 06:30:00;;;;;;;9.18;4.88;;;;;;;12.99;86.05;100578.84;4949214;29;20127;-80
2023/01/02 06:32:27;;;;;;;7.00;4.53;;;;;;;12.94;86.00;100572.28;4949596;29;20087;-80
2023/01/02 06:34:53;;;;;;;17.35;5.28;;;;;;;12.93;86.16;100570.66;4948432;29;20075;-80
2023/01/02 06:37:20;;;;;;;11.27;4.70;;;;;;;12.89;86.07;100571.97;4949279;29;20115;-79
2023/01/02 06:39:47;;;;;;;12.80;5.10;;;;;;;12.93;86.41;100572.47;4948235;29;20562;-79
2023/01/02 06:42:13;;;;;;;11.35;5.20;;;;;;;12.90;86.29;100576.25;4949164;29;20052;-79
2023/01/02 06:44:40;;;;;;;12.05;5.13;;;;;;;12.86;86.47;100579.38;4949020;29;20079;-80
2023/01/02 06:47:08;;;;;;;7.22;4.57;;;;;;;12.91;86.52;100579.69;4948941;29;20139;-80
2023/01/02 06:49:34;;;;;;;14.05;4.65;;;;;;;12.86;86.55;100589.88;4947586;29;20067;-81
2023/01/02 06:52:01;;;;;;;9.77;4.68;;;;;;;12.87;86.45;100587.09;4948969;29;20058;-80
2023/01/02 06:54:27;;;;;;;13.90;4.78;;;;;;;12.87;86.39;100587.09;4946305;29;20075;-80
2023/01/02 06:56:54;;;;;;;9.82;5.22;;;;;;;12.82;86.72;100578.91;4949027;29;20086;-79
2023/01/02 06:59:21;;;;;;;10.98;5.47;;;;;;;12.82;87.06;100594.66;4946240;29;20101;-79
2023/01/02 07:01:47;;;;;;;11.50;4.85;;;;;;;12.77;87.77;100590.91;4945908;29;20075;-79
2023/01/02 07:04:16;;;;;;;10.18;5.13;;;;;;;12.67;88.08;100596.41;4947405;29;20051;-80
2023/01/02 07:07:21;;;;;;;9.23;4.93;;;;;;;12.58;88.74;100592.16;4969932;23;20142;-79
2023/01/02 07:12:45;;;;;;;13.63;5.20;;;;;;;12.41;91.21;100611.56;4944364;29;20077;-80
2023/01/02 07:15:12;;;;;;;11.60;4.88;;;;;;;12.34;92.50;100615.84;4950188;29;20028;-80
2023/01/02 07:17:39;;;;;;;13.20;4.93;;;;;;;12.12;93.68;100599.84;4950598;29;20063;-80
2023/01/02 07:20:09;;;;;;;14.88;5.28;;;;;;;12.14;95.42;100629.34;4950747;29;20048;-80
2023/01/02 07:22:36;;;;;;;16.85;5.50;;;;;;;12.10;96.25;100633.28;4948566;29;20055;-79
2023/01/02 07:25:05;;;;;;;10.57;5.43;;;;;;;11.96;97.17;100619.03;4949948;29;20059;-80
2023/01/02 07:27:33;;;;;;;11.07;5.25;;;;;;;11.93;98.22;100619.34;4950178;29;20056;-80
2023/01/02 07:30:04;;;;;;;13.07;6.20;;;;;;;11.91;99.25;100636.22;4948418;29;20051;-80
2023/01/02 07:36:11;;;;;;;15.13;5.63;;;;;;;11.72;100.00;100647.84;4904715;29;20048;-77
2023/01/02 08:09:43;;;;;;;14.23;5.82;;;;;;;11.32;100.00;100724.59;4752222;30;20052;-80
2023/01/02 08:12:10;;;;;;;11.48;5.80;;;;;;;11.43;100.00;100742.59;4760155;30;20060;-78
2023/01/02 08:14:37;;;;;;;13.55;7.22;;;;;;;11.40;100.00;100748.16;4882524;29;20596;-78
2023/01/02 08:17:03;;;;;;;11.13;6.45;;;;;;;11.33;100.00;100757.66;4924587;29;20521;-79
2023/01/02 08:19:30;;;;;;;8.98;5.78;;;;;;;11.22;100.00;100750.06;4935124;29;20435;-77
2023/01/02 08:22:00;;;;;;;12.35;6.47;;;;;;;11.22;100.00;100756.13;4949253;29;20055;-79
2023/01/02 08:24:26;;;;;;;15.75;6.63;;;;;;;11.21;100.00;100772.81;4962345;28;20047;-81
2023/01/02 08:29:55;;;;;;;9.88;5.30;;;;;;;11.21;100.00;100785.09;4973381;28;20050;-80
2023/01/02 09:02:19;;;;;;;9.32;5.05;;;;;;;11.25;100.00;100792.50;5073814;23;20105;-79
2023/01/02 09:14:55;;;;;;;6.38;3.90;;;;;;;11.48;100.00;100828.59;4932744;23;20431;-79
2023/01/02 09:17:21;;;;;;;8.00;3.90;;;;;;;11.40;100.00;100831.19;4968548;29;20114;-79
2023/01/02 09:19:48;;;;;;;5.28;3.20;;;;;;;11.39;100.00;100830.38;4968377;29;20047;-80
2023/01/02 09:22:15;;;;;;;4.82;3.08;;;;;;;11.35;100.00;100841.31;4963406;29;20291;-79
2023/01/02 09:24:41;;;;;;;5.25;3.20;;;;;;;11.32;100.00;100836.41;4967523;29;20038;-80
2023/01/02 09:27:08;;;;;;;5.50;3.92;;;;;;;11.24;100.00;100842.41;4971289;29;20422;-79
2023/01/02 09:29:35;;;;;;;4.82;3.25;;;;;;;11.24;100.00;100852.91;4957438;29;20078;-79
2023/01/02 09:32:03;;;;;;;4.38;3.00;;;;;;;11.25;100.00;100855.38;4958979;29;20453;-79
2023/01/02 09:34:29;;;;;;;3.17;2.88;;;;;;;11.23;100.00;100866.97;4955104;29;20052;-80
2023/01/02 09:36:56;;;;;;;4.25;2.60;;;;;;;11.25;100.00;100865.84;4948997;29;20147;-79
2023/01/02 09:39:23;;;;;;;4.63;2.70;;;;;;;11.31;100.00;100877.50;4949231;29;20105;-79
2023/01/02 09:41:52;;;;;;;4.45;3.05;;;;;;;11.27;100.00;100889.25;4948090;29;20055;-80
2023/01/02 09:44:25;;;;;;;4.57;3.10;;;;;;;11.19;100.00;100897.88;4952165;29;20130;-79
2023/01/02 09:46:56;;;;;;;5.38;3.25;;;;;;;11.22;100.00;100892.34;4957113;29;20497;-78
2023/01/02 09:49:29;;;;;;;5.28;3.15;;;;;;;11.18;100.00;100896.25;4968301;28;20119;-79
2023/01/02 09:51:56;;;;;;;6.25;3.00;;;;;;;11.13;100.00;100919.44;4961901;29;20111;-79
2023/01/02 09:54:26;;;;;;;3.67;2.90;;;;;;;11.13;100.00;100934.34;4967457;28;20047;-79
2023/01/02 09:57:07;;;;;;;4.68;3.03;;;;;;;11.09;100.00;100925.13;4964598;29;20055;-78
2023/01/02 09:59:40;;;;;;;3.60;3.10;;;;;;;11.03;100.00;100930.97;4960778;29;20150;-78
2023/01/02 10:02:22;;;;;;;7.10;3.30;;;;;;;10.92;100.00;100939.88;4962808;29;20137;-79
2023/01/02 10:05:05;;;;;;;5.60;3.15;;;;;;;10.83;100.00;100956.53;4974581;28;20122;-78
2023/01/02 10:07:35;;;;;;;;;;;;;;;10.76;100.00;100953.66;4976823;28;20808;-79
2023/01/02 10:10:05;;;;;;;5.38;3.42;;;;;;;10.75;100.00;100962.50;4963180;29;19923;-80
2023/01/02 10:12:37;;;;;;;6.05;3.20;;;;;;;10.80;100.00;100964.66;4963699;29;20115;-80
2023/01/02 10:15:10;;;;;;;4.35;3.17;;;;;;;10.80;100.00;100970.72;4966730;29;20077;-80
2023/01/02 10:17:45;;;;;;;5.05;3.50;;;;;;;10.80;100.00;100968.13;4963391;29;20063;-79
2023/01/02 10:20:24;;;;;;;10.07;4.95;;;;;;;10.80;100.00;100970.72;4964634;29;20055;-79
2023/01/02 10:22:57;;;;;;;10.07;6.68;;;;;;;10.78;100.00;100975.28;4964605;29;20051;-79
2023/01/02 10:25:27;;;;;;;8.25;5.70;;;;;;;10.86;100.00;100969.31;4952898;29;20082;-80
2023/01/02 10:28:00;;;;;;;7.03;5.10;;;;;;;10.85;100.00;100971.09;4950773;28;20086;-78
2023/01/02 10:30:32;;;;;;;4.65;3.75;;;;;;;10.76;100.00;100958.91;4971550;28;20098;-80
2023/01/02 10:33:04;;;;;;;6.68;3.67;;;;;;;10.83;100.00;100980.91;4977351;28;20030;-80
2023/01/02 10:35:39;;;;;;;4.47;3.40;;;;;;;10.84;100.00;100969.47;4976288;28;20035;-80
2023/01/02 10:38:06;;;;;;;6.32;3.13;;;;;;;10.80;100.00;100975.13;4972512;29;20075;-80
2023/01/02 10:40:33;;;;;;;5.20;3.30;;;;;;;10.78;100.00;100969.22;4958174;29;20090;-79
2023/01/02 10:43:00;;;;;;;6.05;4.00;;;;;;;10.71;100.00;100966.38;4963471;29;20078;-80
2023/01/02 10:45:28;;;;;;;6.18;4.32;;;;;;;10.81;100.00;100972.38;4937557;28;20083;-81
2023/01/02 10:47:54;;;;;;;6.88;4.68;;;;;;;10.79;100.00;100979.56;4944967;29;20089;-81
2023/01/02 10:50:24;;;;;;;7.65;4.72;;;;;;;10.82;100.00;100979.25;4943281;29;20115;-81
2023/01/02 10:52:54;;;;;;;6.45;4.43;;;;;;;10.74;100.00;100979.16;4935825;29;20055;-81
2023/01/02 10:55:32;;;;;;;7.20;4.90;;;;;;;10.75;100.00;100974.75;4941807;29;20066;-79
2023/01/02 10:58:04;;;;;;;7.13;5.00;;;;;;;10.73;100.00;100980.16;4932652;29;20044;-80
2023/01/02 11:00:32;;;;;;;10.15;5.80;;;;;;;10.67;100.00;100979.91;4929014;29;20116;-80
2023/01/02 11:03:05;;;;;;;9.50;6.78;;;;;;;10.64;100.00;100981.84;4941912;29;20083;-81
2023/01/02 11:05:31;;;;;;;;;;;;;;;10.65;100.00;100982.66;4936186;29;20047;-80
2023/01/02 11:08:06;;;;;;;15.95;7.93;;;;;;;10.70;100.00;100972.59;4941749;29;19998;-80
2023/01/02 11:10:35;;;;;;;8.85;6.40;;;;;;;10.69;100.00;100984.03;4943124;29;20094;-80
2023/01/02 11:13:02;;;;;;;8.90;6.10;;;;;;;10.67;100.00;100979.91;4942709;29;20052;-82
2023/01/02 11:15:35;;;;;;;9.55;5.97;;;;;;;10.71;100.00;100982.09;4944247;29;20059;-82
2023/01/02 11:18:02;;;;;;;;;;;;;;;10.68;100.00;100997.25;4943913;29;20067;-80
2023/01/02 11:20:32;;;;;;;10.57;6.95;;;;;;;10.65;100.00;100998.38;4942733;29;19962;-80
2023/01/02 11:23:02;;;;;;;11.43;7.03;;;;;;;10.62;100.00;101007.34;4943830;29;20082;-83
2023/01/02 11:25:35;;;;;;;10.20;6.78;;;;;;;10.60;100.00;100990.13;4940279;29;20118;-79
2023/01/02 11:28:03;;;;;;;11.10;6.20;;;;;;;10.55;100.00;100989.75;4942309;29;20131;-78
2023/01/02 11:30:35;;;;;;;8.10;5.45;;;;;;;10.66;100.00;100993.97;4940914;29;20456;-82
2023/01/02 11:33:08;;;;;;;7.53;4.50;;;;;;;10.63;100.00;101006.38;4926910;29;20054;-82
2023/01/02 11:35:38;;;;;;;;;;;;;;;10.60;100.00;101000.59;4937351;29;20071;-78
2023/01/02 11:38:13;;;;;;;7.78;4.10;;;;;;;10.58;100.00;100990.28;4924029;29;19969;-82
2023/01/02 11:40:52;;;;;;;5.32;4.30;;;;;;;10.62;100.00;100993.44;4938261;29;20547;-82
2023/01/02 11:46:14;;;;;;;5.90;4.30;;;;;;;10.71;100.00;100982.09;4941565;29;20150;-80
2023/01/02 11:48:42;;;;;;;7.63;4.68;;;;;;;10.72;100.00;100988.97;4942996;29;20131;-79
2023/01/02 11:51:15;;;;;;;6.10;4.30;;;;;;;10.69;100.00;100999.72;4943367;29;20055;-81
2023/01/02 11:53:48;;;;;;;6.07;4.53;;;;;;;10.74;100.00;101002.72;4937113;29;20418;-80
2023/01/02 11:56:20;;;;;;;6.13;4.65;;;;;;;10.80;100.00;101012.63;4943285;29;20115;-79
2023/01/02 11:58:55;;;;;;;6.93;4.10;;;;;;;10.85;100.00;101010.38;4939742;29;20055;-82
2023/01/02 12:05:09;;;;;;;5.45;4.20;;;;;;;10.99;100.00;101022.09;4929066;29;20055;-82
2023/01/02 12:07:51;;;;;;;6.50;4.28;;;;;;;11.05;100.00;101015.44;4923611;29;20074;-83
2023/01/02 12:11:03;;;;;;;5.47;4.37;;;;;;;11.05;100.00;101016.28;4943083;29;20075;-80
2023/01/02 12:14:07;;;;;;;4.80;4.13;;;;;;;11.24;100.00;101017.94;4947413;29;20307;-83
2023/01/02 12:16:52;;;;;;;4.93;4.28;;;;;;;11.16;100.00;101025.72;4945998;29;20056;-82
2023/01/02 12:20:12;;;;;;;5.10;4.25;;;;;;;11.13;100.00;101015.53;4948413;29;20044;-82
2023/01/02 12:29:57;;;;;;;7.55;4.07;;;;;;;11.07;99.55;101016.94;4904229;29;20056;-83
2023/01/02 12:33:27;;;;;;;4.15;3.42;;;;;;;11.03;99.77;101036.56;4949930;29;20075;-81
2023/01/02 12:36:30;;;;;;;4.00;3.60;;;;;;;11.06;99.41;101043.28;4870206;29;20113;-82
2023/01/02 12:42:12;;;;;;;4.50;3.70;;;;;;;11.17;99.17;101040.44;4938226;29;19923;-82
2023/01/02 12:44:55;;;;;;;3.85;3.45;;;;;;;11.34;98.92;101047.50;4947995;29;20083;-83
2023/01/02 12:47:48;;;;;;;4.07;3.53;;;;;;;11.31;97.80;101047.78;4932291;29;20059;-82
2023/01/02 12:50:38;;;;;;;4.22;3.45;;;;;;;11.33;97.52;101061.56;4927988;29;20052;-83
2023/01/02 12:53:22;;;;;;;4.28;3.33;;;;;;;11.25;97.22;101053.63;4928066;29;20056;-81
2023/01/02 12:56:07;;;;;;;4.63;3.35;;;;;;;11.30;97.48;101061.88;4944583;29;20067;-83
2023/01/02 12:59:04;;;;;;;4.13;3.38;;;;;;;11.23;97.40;101068.66;4946286;29;20059;-82
2023/01/02 13:01:59;;;;;;;3.60;3.08;;;;;;;11.16;97.56;101065.00;4926809;29;20052;-84
2023/01/02 13:05:03;;;;;;;3.47;3.17;;;;;;;11.20;98.14;101046.22;4927225;29;20483;-82
2023/01/02 13:07:39;;;;;;;4.40;3.35;;;;;;;11.03;97.96;101048.81;4925169;29;20056;-83
2023/01/02 13:10:35;;;;;;;5.30;3.55;;;;;;;10.92;98.12;101042.81;4926691;29;20060;-83
2023/01/02 13:16:01;;;;;;;4.65;3.50;;;;;;;10.89;98.39;101048.34;4924772;29;20056;-82
2023/01/02 13:18:43;;;;;;;6.70;3.60;;;;;;;10.98;98.94;101062.34;4930466;29;20052;-85
2023/01/02 13:21:17;;;;;;;5.83;3.17;;;;;;;10.84;98.51;101049.78;4940897;29;20086;-83
2023/01/02 13:23:46;;;;;;;3.85;3.22;;;;;;;10.74;98.88;101056.88;4944460;29;20090;-79
2023/01/02 13:26:16;;;;;;;5.07;3.90;;;;;;;10.79;99.32;101065.94;4946468;29;20063;-81
2023/01/02 13:28:52;;;;;;;8.57;3.45;;;;;;;10.78;99.17;101066.91;4943577;29;20111;-80
2023/01/02 13:31:19;;;;;;;6.70;5.28;;;;;;;10.81;99.55;101061.38;4934175;29;20055;-82
2023/01/02 13:33:49;;;;;;;6.32;4.38;;;;;;;10.86;99.54;101076.66;4928909;29;20056;-82
2023/01/02 13:36:23;;;;;;;6.28;3.92;;;;;;;10.81;100.00;101066.63;4941262;29;20044;-80